sensor_id;sensor_type;location;lat;lon;timestamp;P1;durP1;ratioP1;P2;durP2;ratioP2
55829;SDS011;41759;53.330;6.002;2024-02-23T00:00:03;12.13;;;1.63;;
55829;SDS011;41759;53.330;6.002;2024-02-23T00:02:31;10.48;;;1.55;;
55829;SDS011;41759;53.330;6.002;2024-02-23T00:04:57;8.50;;;1.10;;
55829;SDS011;41759;53.330;6.002;2024-02-23T00:07:23;13.25;;;1.52;;
55829;SDS011;41759;53.330;6.002;2024-02-23T00:09:48;6.88;;;1.80;;
55829;SDS011;41759;53.330;6.002;2024-02-23T00:12:14;8.88;;;1.20;;
55829;SDS011;41759;53.330;6.002;2024-02-23T00:14:40;12.98;;;1.92;;
55829;SDS011;41759;53.330;6.002;2024-02-23T00:17:06;4.45;;;1.30;;
55829;SDS011;41759;53.330;6.002;2024-02-23T00:19:31;10.27;;;1.85;;
55829;SDS011;41759;53.330;6.002;2024-02-23T00:21:57;13.98;;;1.95;;
55829;SDS011;41759;53.330;6.002;2024-02-23T00:24:24;14.13;;;2.22;;
55829;SDS011;41759;53.330;6.002;2024-02-23T00:26:50;9.80;;;2.55;;
55829;SDS011;41759;53.330;6.002;2024-02-23T00:29:16;12.10;;;1.58;;
55829;SDS011;41759;53.330;6.002;2024-02-23T00:31:43;3.58;;;0.90;;
55829;SDS011;41759;53.330;6.002;2024-02-23T00:34:10;8.27;;;1.67;;
55829;SDS011;41759;53.330;6.002;2024-02-23T00:36:41;7.20;;;1.23;;
55829;SDS011;41759;53.330;6.002;2024-02-23T00:39:07;4.72;;;1.05;;
55829;SDS011;41759;53.330;6.002;2024-02-23T00:41:34;1.92;;;0.63;;
55829;SDS011;41759;53.330;6.002;2024-02-23T00:44:00;11.55;;;2.17;;
55829;SDS011;41759;53.330;6.002;2024-02-23T00:46:26;8.45;;;1.63;;
55829;SDS011;41759;53.330;6.002;2024-02-23T00:48:52;4.05;;;1.13;;
55829;SDS011;41759;53.330;6.002;2024-02-23T00:51:17;6.82;;;1.77;;
55829;SDS011;41759;53.330;6.002;2024-02-23T00:53:43;9.45;;;1.60;;
55829;SDS011;41759;53.330;6.002;2024-02-23T00:56:09;6.68;;;1.70;;
55829;SDS011;41759;53.330;6.002;2024-02-23T00:58:34;12.40;;;1.38;;
55829;SDS011;41759;53.330;6.002;2024-02-23T01:01:00;15.55;;;2.42;;
55829;SDS011;41759;53.330;6.002;2024-02-23T01:03:26;19.92;;;2.05;;
55829;SDS011;41759;53.330;6.002;2024-02-23T01:05:51;10.55;;;2.05;;
55829;SDS011;41759;53.330;6.002;2024-02-23T01:08:17;10.90;;;1.85;;
55829;SDS011;41759;53.330;6.002;2024-02-23T01:10:44;14.68;;;2.30;;
55829;SDS011;41759;53.330;6.002;2024-02-23T01:13:10;11.95;;;2.25;;
55829;SDS011;41759;53.330;6.002;2024-02-23T01:15:35;12.70;;;1.45;;
55829;SDS011;41759;53.330;6.002;2024-02-23T01:18:01;14.15;;;2.67;;
55829;SDS011;41759;53.330;6.002;2024-02-23T01:20:28;9.15;;;2.35;;
55829;SDS011;41759;53.330;6.002;2024-02-23T01:22:53;8.52;;;2.00;;
55829;SDS011;41759;53.330;6.002;2024-02-23T01:25:19;11.88;;;1.92;;
55829;SDS011;41759;53.330;6.002;2024-02-23T01:27:45;10.60;;;2.13;;
55829;SDS011;41759;53.330;6.002;2024-02-23T01:30:10;15.73;;;2.10;;
55829;SDS011;41759;53.330;6.002;2024-02-23T01:32:37;10.93;;;2.88;;
55829;SDS011;41759;53.330;6.002;2024-02-23T01:35:04;9.80;;;1.63;;
55829;SDS011;41759;53.330;6.002;2024-02-23T01:37:30;8.32;;;2.17;;
55829;SDS011;41759;53.330;6.002;2024-02-23T01:39:57;12.23;;;2.60;;
55829;SDS011;41759;53.330;6.002;2024-02-23T01:42:23;12.35;;;2.50;;
55829;SDS011;41759;53.330;6.002;2024-02-23T01:44:49;11.15;;;2.58;;
55829;SDS011;41759;53.330;6.002;2024-02-23T01:47:15;16.33;;;2.58;;
55829;SDS011;41759;53.330;6.002;2024-02-23T01:49:41;10.68;;;2.42;;
55829;SDS011;41759;53.330;6.002;2024-02-23T01:52:07;18.20;;;3.25;;
55829;SDS011;41759;53.330;6.002;2024-02-23T01:54:33;10.13;;;2.22;;
55829;SDS011;41759;53.330;6.002;2024-02-23T01:56:59;12.60;;;2.53;;
55829;SDS011;41759;53.330;6.002;2024-02-23T01:59:25;10.23;;;2.40;;
55829;SDS011;41759;53.330;6.002;2024-02-23T02:01:52;9.75;;;1.65;;
55829;SDS011;41759;53.330;6.002;2024-02-23T02:04:18;17.70;;;2.55;;
55829;SDS011;41759;53.330;6.002;2024-02-23T02:06:45;9.68;;;2.20;;
55829;SDS011;41759;53.330;6.002;2024-02-23T02:09:11;9.95;;;2.10;;
55829;SDS011;41759;53.330;6.002;2024-02-23T02:11:50;9.52;;;1.58;;
55829;SDS011;41759;53.330;6.002;2024-02-23T02:14:16;9.02;;;2.13;;
55829;SDS011;41759;53.330;6.002;2024-02-23T02:16:42;7.85;;;1.75;;
55829;SDS011;41759;53.330;6.002;2024-02-23T02:19:09;6.15;;;1.38;;
55829;SDS011;41759;53.330;6.002;2024-02-23T02:21:35;10.38;;;1.85;;
55829;SDS011;41759;53.330;6.002;2024-02-23T02:24:02;9.43;;;2.30;;
55829;SDS011;41759;53.330;6.002;2024-02-23T02:26:28;9.50;;;2.22;;
55829;SDS011;41759;53.330;6.002;2024-02-23T02:28:54;7.30;;;1.55;;
55829;SDS011;41759;53.330;6.002;2024-02-23T02:31:20;12.18;;;2.58;;
55829;SDS011;41759;53.330;6.002;2024-02-23T02:33:47;8.02;;;1.25;;
55829;SDS011;41759;53.330;6.002;2024-02-23T02:36:39;7.22;;;1.58;;
55829;SDS011;41759;53.330;6.002;2024-02-23T02:39:04;11.95;;;2.35;;
55829;SDS011;41759;53.330;6.002;2024-02-23T02:41:32;7.75;;;1.58;;
55829;SDS011;41759;53.330;6.002;2024-02-23T02:43:58;6.90;;;2.00;;
55829;SDS011;41759;53.330;6.002;2024-02-23T02:46:23;5.55;;;1.48;;
55829;SDS011;41759;53.330;6.002;2024-02-23T02:48:49;11.90;;;1.65;;
55829;SDS011;41759;53.330;6.002;2024-02-23T02:51:15;8.30;;;1.20;;
55829;SDS011;41759;53.330;6.002;2024-02-23T02:53:40;8.88;;;1.42;;
55829;SDS011;41759;53.330;6.002;2024-02-23T02:56:06;10.45;;;1.50;;
55829;SDS011;41759;53.330;6.002;2024-02-23T02:58:32;10.38;;;1.50;;
55829;SDS011;41759;53.330;6.002;2024-02-23T03:00:58;10.35;;;1.60;;
55829;SDS011;41759;53.330;6.002;2024-02-23T03:03:23;8.25;;;1.60;;
55829;SDS011;41759;53.330;6.002;2024-02-23T03:05:49;5.20;;;1.77;;
55829;SDS011;41759;53.330;6.002;2024-02-23T03:08:15;6.50;;;1.20;;
55829;SDS011;41759;53.330;6.002;2024-02-23T03:10:40;10.43;;;1.40;;
55829;SDS011;41759;53.330;6.002;2024-02-23T03:13:06;7.65;;;1.55;;
55829;SDS011;41759;53.330;6.002;2024-02-23T03:15:32;6.90;;;1.85;;
55829;SDS011;41759;53.330;6.002;2024-02-23T03:17:58;10.13;;;1.98;;
55829;SDS011;41759;53.330;6.002;2024-02-23T03:20:26;3.60;;;1.38;;
55829;SDS011;41759;53.330;6.002;2024-02-23T03:22:51;5.72;;;0.98;;
55829;SDS011;41759;53.330;6.002;2024-02-23T03:25:17;6.22;;;1.23;;
55829;SDS011;41759;53.330;6.002;2024-02-23T03:27:43;6.80;;;1.40;;
55829;SDS011;41759;53.330;6.002;2024-02-23T03:30:09;9.48;;;2.20;;
55829;SDS011;41759;53.330;6.002;2024-02-23T03:32:35;5.63;;;0.90;;
55829;SDS011;41759;53.330;6.002;2024-02-23T03:35:05;6.05;;;1.00;;
55829;SDS011;41759;53.330;6.002;2024-02-23T03:37:33;4.53;;;0.60;;
55829;SDS011;41759;53.330;6.002;2024-02-23T03:39:58;7.05;;;0.88;;
55829;SDS011;41759;53.330;6.002;2024-02-23T03:42:27;3.25;;;0.82;;
55829;SDS011;41759;53.330;6.002;2024-02-23T03:44:53;6.55;;;1.27;;
55829;SDS011;41759;53.330;6.002;2024-02-23T03:47:19;4.35;;;0.90;;
55829;SDS011;41759;53.330;6.002;2024-02-23T03:49:45;4.15;;;1.05;;
55829;SDS011;41759;53.330;6.002;2024-02-23T03:52:10;6.70;;;1.30;;
55829;SDS011;41759;53.330;6.002;2024-02-23T03:54:36;5.63;;;1.20;;
55829;SDS011;41759;53.330;6.002;2024-02-23T03:57:02;5.55;;;0.98;;
55829;SDS011;41759;53.330;6.002;2024-02-23T03:59:28;5.45;;;1.00;;
55829;SDS011;41759;53.330;6.002;2024-02-23T04:01:54;5.90;;;1.00;;
55829;SDS011;41759;53.330;6.002;2024-02-23T04:04:20;6.90;;;0.90;;
55829;SDS011;41759;53.330;6.002;2024-02-23T04:06:45;6.82;;;1.40;;
55829;SDS011;41759;53.330;6.002;2024-02-23T04:09:11;9.15;;;1.00;;
55829;SDS011;41759;53.330;6.002;2024-02-23T04:11:37;8.25;;;0.82;;
55829;SDS011;41759;53.330;6.002;2024-02-23T04:14:03;12.73;;;1.30;;
55829;SDS011;41759;53.330;6.002;2024-02-23T04:16:30;8.30;;;1.15;;
55829;SDS011;41759;53.330;6.002;2024-02-23T04:18:56;4.18;;;1.13;;
55829;SDS011;41759;53.330;6.002;2024-02-23T04:21:22;6.05;;;1.00;;
55829;SDS011;41759;53.330;6.002;2024-02-23T04:23:48;11.00;;;1.30;;
55829;SDS011;41759;53.330;6.002;2024-02-23T04:26:13;6.82;;;1.95;;
55829;SDS011;41759;53.330;6.002;2024-02-23T04:28:40;5.88;;;0.93;;
55829;SDS011;41759;53.330;6.002;2024-02-23T04:31:07;3.42;;;0.80;;
55829;SDS011;41759;53.330;6.002;2024-02-23T04:33:34;3.58;;;0.80;;
55829;SDS011;41759;53.330;6.002;2024-02-23T04:36:00;6.57;;;1.00;;
55829;SDS011;41759;53.330;6.002;2024-02-23T04:38:28;5.15;;;0.95;;
55829;SDS011;41759;53.330;6.002;2024-02-23T04:40:54;5.30;;;0.82;;
55829;SDS011;41759;53.330;6.002;2024-02-23T04:43:20;8.75;;;1.40;;
55829;SDS011;41759;53.330;6.002;2024-02-23T04:45:45;6.88;;;1.55;;
55829;SDS011;41759;53.330;6.002;2024-02-23T04:48:11;6.43;;;0.95;;
55829;SDS011;41759;53.330;6.002;2024-02-23T04:50:37;9.98;;;1.35;;
55829;SDS011;41759;53.330;6.002;2024-02-23T04:53:03;3.60;;;0.90;;
55829;SDS011;41759;53.330;6.002;2024-02-23T04:55:29;3.22;;;1.10;;
55829;SDS011;41759;53.330;6.002;2024-02-23T04:57:54;6.03;;;1.30;;
55829;SDS011;41759;53.330;6.002;2024-02-23T05:00:21;4.30;;;0.90;;
55829;SDS011;41759;53.330;6.002;2024-02-23T05:02:47;10.30;;;2.08;;
55829;SDS011;41759;53.330;6.002;2024-02-23T05:05:12;6.00;;;1.02;;
55829;SDS011;41759;53.330;6.002;2024-02-23T05:07:38;13.43;;;1.40;;
55829;SDS011;41759;53.330;6.002;2024-02-23T05:10:04;5.60;;;1.27;;
55829;SDS011;41759;53.330;6.002;2024-02-23T05:12:30;5.88;;;1.08;;
55829;SDS011;41759;53.330;6.002;2024-02-23T05:14:55;8.50;;;1.58;;
55829;SDS011;41759;53.330;6.002;2024-02-23T05:17:21;7.40;;;1.13;;
55829;SDS011;41759;53.330;6.002;2024-02-23T05:19:48;5.53;;;1.10;;
55829;SDS011;41759;53.330;6.002;2024-02-23T05:22:14;3.95;;;0.73;;
55829;SDS011;41759;53.330;6.002;2024-02-23T05:24:39;8.48;;;1.20;;
55829;SDS011;41759;53.330;6.002;2024-02-23T05:27:05;7.70;;;1.35;;
55829;SDS011;41759;53.330;6.002;2024-02-23T05:29:31;2.90;;;0.80;;
55829;SDS011;41759;53.330;6.002;2024-02-23T05:31:57;5.57;;;1.00;;
55829;SDS011;41759;53.330;6.002;2024-02-23T05:34:22;5.60;;;1.08;;
55829;SDS011;41759;53.330;6.002;2024-02-23T05:36:48;11.38;;;1.20;;
55829;SDS011;41759;53.330;6.002;2024-02-23T05:39:16;8.52;;;1.23;;
55829;SDS011;41759;53.330;6.002;2024-02-23T05:41:42;6.35;;;1.15;;
55829;SDS011;41759;53.330;6.002;2024-02-23T05:44:08;8.07;;;0.95;;
55829;SDS011;41759;53.330;6.002;2024-02-23T05:46:35;5.57;;;1.13;;
55829;SDS011;41759;53.330;6.002;2024-02-23T05:49:02;6.70;;;1.27;;
55829;SDS011;41759;53.330;6.002;2024-02-23T05:51:31;3.05;;;0.85;;
55829;SDS011;41759;53.330;6.002;2024-02-23T05:53:57;7.28;;;1.25;;
55829;SDS011;41759;53.330;6.002;2024-02-23T05:56:23;6.32;;;1.00;;
55829;SDS011;41759;53.330;6.002;2024-02-23T05:58:49;7.00;;;1.10;;
55829;SDS011;41759;53.330;6.002;2024-02-23T06:01:16;9.55;;;2.08;;
55829;SDS011;41759;53.330;6.002;2024-02-23T06:03:43;6.72;;;1.63;;
55829;SDS011;41759;53.330;6.002;2024-02-23T06:06:09;9.70;;;1.10;;
55829;SDS011;41759;53.330;6.002;2024-02-23T06:08:43;7.10;;;0.80;;
55829;SDS011;41759;53.330;6.002;2024-02-23T06:11:30;7.20;;;1.20;;
55829;SDS011;41759;53.330;6.002;2024-02-23T06:19:08;9.70;;;1.20;;
55829;SDS011;41759;53.330;6.002;2024-02-23T06:22:41;12.05;;;1.60;;
55829;SDS011;41759;53.330;6.002;2024-02-23T06:25:58;5.03;;;1.00;;
55829;SDS011;41759;53.330;6.002;2024-02-23T06:28:24;10.05;;;1.10;;
55829;SDS011;41759;53.330;6.002;2024-02-23T06:30:50;5.55;;;1.35;;
55829;SDS011;41759;53.330;6.002;2024-02-23T06:33:15;9.70;;;1.42;;
55829;SDS011;41759;53.330;6.002;2024-02-23T06:35:41;5.70;;;1.30;;
55829;SDS011;41759;53.330;6.002;2024-02-23T06:38:07;2.72;;;0.90;;
55829;SDS011;41759;53.330;6.002;2024-02-23T06:40:33;8.23;;;1.20;;
55829;SDS011;41759;53.330;6.002;2024-02-23T06:42:58;6.00;;;0.90;;
55829;SDS011;41759;53.330;6.002;2024-02-23T06:45:25;3.53;;;0.95;;
55829;SDS011;41759;53.330;6.002;2024-02-23T06:47:51;8.40;;;1.23;;
55829;SDS011;41759;53.330;6.002;2024-02-23T06:50:16;7.00;;;1.30;;
55829;SDS011;41759;53.330;6.002;2024-02-23T06:52:42;9.00;;;1.60;;
55829;SDS011;41759;53.330;6.002;2024-02-23T06:55:08;13.88;;;2.05;;
55829;SDS011;41759;53.330;6.002;2024-02-23T06:57:35;7.30;;;1.95;;
55829;SDS011;41759;53.330;6.002;2024-02-23T07:00:02;9.30;;;2.17;;
55829;SDS011;41759;53.330;6.002;2024-02-23T07:02:28;13.75;;;3.15;;
55829;SDS011;41759;53.330;6.002;2024-02-23T07:04:56;10.35;;;2.58;;
55829;SDS011;41759;53.330;6.002;2024-02-23T07:07:23;12.70;;;2.90;;
55829;SDS011;41759;53.330;6.002;2024-02-23T07:09:49;16.70;;;3.40;;
55829;SDS011;41759;53.330;6.002;2024-02-23T07:12:15;10.07;;;2.97;;
55829;SDS011;41759;53.330;6.002;2024-02-23T07:14:41;18.65;;;3.47;;
55829;SDS011;41759;53.330;6.002;2024-02-23T07:17:06;13.85;;;3.85;;
55829;SDS011;41759;53.330;6.002;2024-02-23T07:19:33;10.05;;;3.95;;
55829;SDS011;41759;53.330;6.002;2024-02-23T07:21:58;9.73;;;4.07;;
55829;SDS011;41759;53.330;6.002;2024-02-23T07:24:24;9.63;;;4.97;;
55829;SDS011;41759;53.330;6.002;2024-02-23T07:26:50;12.05;;;4.25;;
55829;SDS011;41759;53.330;6.002;2024-02-23T07:29:15;8.13;;;3.47;;
55829;SDS011;41759;53.330;6.002;2024-02-23T07:31:41;6.80;;;3.30;;
55829;SDS011;41759;53.330;6.002;2024-02-23T07:34:07;10.77;;;3.97;;
55829;SDS011;41759;53.330;6.002;2024-02-23T07:36:33;8.85;;;3.47;;
55829;SDS011;41759;53.330;6.002;2024-02-23T07:38:59;16.38;;;3.40;;
55829;SDS011;41759;53.330;6.002;2024-02-23T07:41:28;8.65;;;2.72;;
55829;SDS011;41759;53.330;6.002;2024-02-23T07:43:54;7.25;;;3.05;;
55829;SDS011;41759;53.330;6.002;2024-02-23T07:46:20;12.75;;;3.50;;
55829;SDS011;41759;53.330;6.002;2024-02-23T07:48:47;4.10;;;2.47;;
55829;SDS011;41759;53.330;6.002;2024-02-23T07:51:13;8.80;;;2.78;;
55829;SDS011;41759;53.330;6.002;2024-02-23T07:53:39;9.27;;;2.50;;
55829;SDS011;41759;53.330;6.002;2024-02-23T07:56:07;8.52;;;2.97;;
55829;SDS011;41759;53.330;6.002;2024-02-23T07:58:33;10.95;;;3.08;;
55829;SDS011;41759;53.330;6.002;2024-02-23T08:00:58;9.57;;;2.45;;
55829;SDS011;41759;53.330;6.002;2024-02-23T08:03:31;7.18;;;2.30;;
55829;SDS011;41759;53.330;6.002;2024-02-23T08:05:56;8.07;;;2.55;;
55829;SDS011;41759;53.330;6.002;2024-02-23T08:08:22;5.00;;;2.10;;
55829;SDS011;41759;53.330;6.002;2024-02-23T08:10:49;5.05;;;2.35;;
55829;SDS011;41759;53.330;6.002;2024-02-23T08:13:14;5.95;;;3.00;;
55829;SDS011;41759;53.330;6.002;2024-02-23T08:15:40;7.10;;;2.17;;
55829;SDS011;41759;53.330;6.002;2024-02-23T08:18:06;4.13;;;2.13;;
55829;SDS011;41759;53.330;6.002;2024-02-23T08:20:31;11.55;;;2.60;;
55829;SDS011;41759;53.330;6.002;2024-02-23T08:22:57;5.22;;;2.72;;
55829;SDS011;41759;53.330;6.002;2024-02-23T08:25:23;9.25;;;4.05;;
55829;SDS011;41759;53.330;6.002;2024-02-23T08:27:48;7.18;;;3.47;;
55829;SDS011;41759;53.330;6.002;2024-02-23T08:30:14;5.70;;;3.00;;
55829;SDS011;41759;53.330;6.002;2024-02-23T08:32:40;6.00;;;3.10;;
55829;SDS011;41759;53.330;6.002;2024-02-23T08:35:06;8.27;;;3.38;;
55829;SDS011;41759;53.330;6.002;2024-02-23T08:37:33;12.52;;;4.63;;
55829;SDS011;41759;53.330;6.002;2024-02-23T08:39:59;7.10;;;4.22;;
55829;SDS011;41759;53.330;6.002;2024-02-23T08:42:24;6.47;;;4.10;;
55829;SDS011;41759;53.330;6.002;2024-02-23T08:44:51;12.27;;;4.38;;
55829;SDS011;41759;53.330;6.002;2024-02-23T08:47:19;6.55;;;3.97;;
55829;SDS011;41759;53.330;6.002;2024-02-23T08:49:45;7.18;;;4.43;;
55829;SDS011;41759;53.330;6.002;2024-02-23T08:52:11;8.07;;;4.45;;
55829;SDS011;41759;53.330;6.002;2024-02-23T08:54:37;6.32;;;4.05;;
55829;SDS011;41759;53.330;6.002;2024-02-23T08:57:04;9.65;;;4.00;;
55829;SDS011;41759;53.330;6.002;2024-02-23T08:59:30;7.30;;;3.05;;
55829;SDS011;41759;53.330;6.002;2024-02-23T09:01:56;6.80;;;3.47;;
55829;SDS011;41759;53.330;6.002;2024-02-23T09:04:21;8.25;;;3.72;;
55829;SDS011;41759;53.330;6.002;2024-02-23T09:06:48;5.55;;;2.88;;
55829;SDS011;41759;53.330;6.002;2024-02-23T09:09:15;9.27;;;3.25;;
55829;SDS011;41759;53.330;6.002;2024-02-23T09:11:41;4.13;;;2.70;;
55829;SDS011;41759;53.330;6.002;2024-02-23T09:14:07;10.57;;;2.78;;
55829;SDS011;41759;53.330;6.002;2024-02-23T09:16:33;8.00;;;2.67;;
55829;SDS011;41759;53.330;6.002;2024-02-23T09:18:58;6.50;;;2.50;;
55829;SDS011;41759;53.330;6.002;2024-02-23T09:21:24;4.35;;;2.40;;
55829;SDS011;41759;53.330;6.002;2024-02-23T09:23:50;5.45;;;2.30;;
55829;SDS011;41759;53.330;6.002;2024-02-23T09:26:16;5.50;;;2.10;;
55829;SDS011;41759;53.330;6.002;2024-02-23T09:28:43;7.32;;;2.00;;
55829;SDS011;41759;53.330;6.002;2024-02-23T09:31:10;7.72;;;2.20;;
55829;SDS011;41759;53.330;6.002;2024-02-23T09:33:36;6.32;;;1.83;;
55829;SDS011;41759;53.330;6.002;2024-02-23T09:36:02;7.35;;;1.80;;
55829;SDS011;41759;53.330;6.002;2024-02-23T09:38:28;5.15;;;1.92;;
55829;SDS011;41759;53.330;6.002;2024-02-23T09:40:54;6.88;;;1.70;;
55829;SDS011;41759;53.330;6.002;2024-02-23T09:43:20;4.90;;;1.58;;
55829;SDS011;41759;53.330;6.002;2024-02-23T09:45:52;4.28;;;1.30;;
55829;SDS011;41759;53.330;6.002;2024-02-23T09:48:18;6.20;;;1.50;;
55829;SDS011;41759;53.330;6.002;2024-02-23T09:50:45;7.63;;;1.50;;
55829;SDS011;41759;53.330;6.002;2024-02-23T09:53:12;3.67;;;1.35;;
55829;SDS011;41759;53.330;6.002;2024-02-23T09:55:39;4.93;;;1.55;;
55829;SDS011;41759;53.330;6.002;2024-02-23T09:58:04;2.88;;;1.05;;
55829;SDS011;41759;53.330;6.002;2024-02-23T10:00:33;4.97;;;1.30;;
55829;SDS011;41759;53.330;6.002;2024-02-23T10:03:02;9.50;;;1.98;;
55829;SDS011;41759;53.330;6.002;2024-02-23T10:05:29;7.28;;;1.20;;
55829;SDS011;41759;53.330;6.002;2024-02-23T10:07:57;4.18;;;1.38;;
55829;SDS011;41759;53.330;6.002;2024-02-23T10:10:32;6.70;;;1.50;;
55829;SDS011;41759;53.330;6.002;2024-02-23T10:13:02;4.32;;;1.10;;
55829;SDS011;41759;53.330;6.002;2024-02-23T10:15:29;5.80;;;1.20;;
55829;SDS011;41759;53.330;6.002;2024-02-23T10:17:56;2.72;;;1.20;;
55829;SDS011;41759;53.330;6.002;2024-02-23T10:20:21;1.52;;;0.90;;
55829;SDS011;41759;53.330;6.002;2024-02-23T10:22:47;4.03;;;1.40;;
55829;SDS011;41759;53.330;6.002;2024-02-23T10:25:13;2.08;;;1.20;;
55829;SDS011;41759;53.330;6.002;2024-02-23T10:27:40;2.15;;;1.00;;
55829;SDS011;41759;53.330;6.002;2024-02-23T10:30:08;2.83;;;1.10;;
55829;SDS011;41759;53.330;6.002;2024-02-23T10:32:36;4.75;;;1.27;;
55829;SDS011;41759;53.330;6.002;2024-02-23T10:35:06;5.53;;;1.25;;
55829;SDS011;41759;53.330;6.002;2024-02-23T10:37:41;4.60;;;1.45;;
55829;SDS011;41759;53.330;6.002;2024-02-23T10:40:13;3.78;;;1.42;;
55829;SDS011;41759;53.330;6.002;2024-02-23T10:42:43;4.40;;;1.92;;
55829;SDS011;41759;53.330;6.002;2024-02-23T10:45:20;4.97;;;2.65;;
55829;SDS011;41759;53.330;6.002;2024-02-23T10:47:50;2.90;;;1.52;;
55829;SDS011;41759;53.330;6.002;2024-02-23T10:50:16;5.43;;;1.80;;
55829;SDS011;41759;53.330;6.002;2024-02-23T10:52:44;4.93;;;1.48;;
55829;SDS011;41759;53.330;6.002;2024-02-23T10:55:12;5.63;;;2.00;;
55829;SDS011;41759;53.330;6.002;2024-02-23T10:57:39;3.78;;;1.23;;
55829;SDS011;41759;53.330;6.002;2024-02-23T11:00:05;3.63;;;1.42;;
55829;SDS011;41759;53.330;6.002;2024-02-23T11:02:36;2.28;;;1.35;;
55829;SDS011;41759;53.330;6.002;2024-02-23T11:05:12;5.28;;;1.95;;
55829;SDS011;41759;53.330;6.002;2024-02-23T11:07:39;4.65;;;1.35;;
55829;SDS011;41759;53.330;6.002;2024-02-23T11:10:05;7.22;;;1.85;;
55829;SDS011;41759;53.330;6.002;2024-02-23T11:12:33;11.90;;;2.80;;
55829;SDS011;41759;53.330;6.002;2024-02-23T11:14:59;5.55;;;1.60;;
55829;SDS011;41759;53.330;6.002;2024-02-23T11:17:26;5.85;;;1.50;;
55829;SDS011;41759;53.330;6.002;2024-02-23T11:19:54;6.57;;;1.88;;
55829;SDS011;41759;53.330;6.002;2024-02-23T11:22:24;8.57;;;2.90;;
55829;SDS011;41759;53.330;6.002;2024-02-23T11:24:51;6.97;;;1.67;;
55829;SDS011;41759;53.330;6.002;2024-02-23T11:27:17;3.45;;;1.40;;
55829;SDS011;41759;53.330;6.002;2024-02-23T11:29:45;4.18;;;1.58;;
55829;SDS011;41759;53.330;6.002;2024-02-23T11:32:15;3.58;;;1.40;;
55829;SDS011;41759;53.330;6.002;2024-02-23T11:34:53;2.85;;;1.33;;
55829;SDS011;41759;53.330;6.002;2024-02-23T11:37:21;7.80;;;1.88;;
55829;SDS011;41759;53.330;6.002;2024-02-23T11:39:47;4.15;;;1.65;;
55829;SDS011;41759;53.330;6.002;2024-02-23T11:42:13;6.93;;;1.88;;
55829;SDS011;41759;53.330;6.002;2024-02-23T11:44:40;3.65;;;1.45;;
55829;SDS011;41759;53.330;6.002;2024-02-23T11:47:06;5.03;;;1.88;;
55829;SDS011;41759;53.330;6.002;2024-02-23T11:49:32;4.00;;;1.40;;
55829;SDS011;41759;53.330;6.002;2024-02-23T11:51:58;4.60;;;1.55;;
55829;SDS011;41759;53.330;6.002;2024-02-23T11:54:24;12.38;;;2.95;;
55829;SDS011;41759;53.330;6.002;2024-02-23T11:56:52;3.88;;;1.40;;
55829;SDS011;41759;53.330;6.002;2024-02-23T11:59:19;4.03;;;1.70;;
55829;SDS011;41759;53.330;6.002;2024-02-23T12:01:45;4.38;;;1.42;;
55829;SDS011;41759;53.330;6.002;2024-02-23T12:04:14;3.95;;;1.30;;
55829;SDS011;41759;53.330;6.002;2024-02-23T12:06:41;4.05;;;1.40;;
55829;SDS011;41759;53.330;6.002;2024-02-23T12:09:07;9.85;;;2.10;;
55829;SDS011;41759;53.330;6.002;2024-02-23T12:11:34;6.05;;;1.67;;
55829;SDS011;41759;53.330;6.002;2024-02-23T12:14:00;4.80;;;1.50;;
55829;SDS011;41759;53.330;6.002;2024-02-23T12:16:33;6.25;;;2.53;;
55829;SDS011;41759;53.330;6.002;2024-02-23T12:19:00;5.68;;;2.15;;
55829;SDS011;41759;53.330;6.002;2024-02-23T12:21:26;4.38;;;1.92;;
55829;SDS011;41759;53.330;6.002;2024-02-23T12:23:52;4.80;;;1.80;;
55829;SDS011;41759;53.330;6.002;2024-02-23T12:26:18;4.88;;;1.65;;
55829;SDS011;41759;53.330;6.002;2024-02-23T12:28:44;11.77;;;5.13;;
55829;SDS011;41759;53.330;6.002;2024-02-23T12:31:11;7.18;;;2.42;;
55829;SDS011;41759;53.330;6.002;2024-02-23T12:33:37;7.80;;;2.38;;
55829;SDS011;41759;53.330;6.002;2024-02-23T12:36:07;5.20;;;1.88;;
55829;SDS011;41759;53.330;6.002;2024-02-23T12:38:33;3.03;;;1.73;;
55829;SDS011;41759;53.330;6.002;2024-02-23T12:41:00;3.25;;;1.90;;
55829;SDS011;41759;53.330;6.002;2024-02-23T12:43:26;6.65;;;1.40;;
55829;SDS011;41759;53.330;6.002;2024-02-23T12:45:55;2.78;;;1.77;;
55829;SDS011;41759;53.330;6.002;2024-02-23T12:48:22;2.75;;;0.90;;
55829;SDS011;41759;53.330;6.002;2024-02-23T12:50:48;3.78;;;1.10;;
55829;SDS011;41759;53.330;6.002;2024-02-23T12:56:03;6.72;;;0.88;;
55829;SDS011;41759;53.330;6.002;2024-02-23T12:58:29;0.93;;;0.60;;
55829;SDS011;41759;53.330;6.002;2024-02-23T13:00:58;6.57;;;1.98;;
55829;SDS011;41759;53.330;6.002;2024-02-23T13:03:25;3.22;;;0.80;;
55829;SDS011;41759;53.330;6.002;2024-02-23T13:05:52;4.05;;;1.00;;
55829;SDS011;41759;53.330;6.002;2024-02-23T13:08:22;3.35;;;0.80;;
55829;SDS011;41759;53.330;6.002;2024-02-23T13:10:48;2.75;;;0.65;;
55829;SDS011;41759;53.330;6.002;2024-02-23T13:13:14;2.80;;;0.77;;
55829;SDS011;41759;53.330;6.002;2024-02-23T13:15:41;4.05;;;0.85;;
55829;SDS011;41759;53.330;6.002;2024-02-23T13:18:07;4.65;;;1.00;;
55829;SDS011;41759;53.330;6.002;2024-02-23T13:20:33;5.68;;;0.95;;
55829;SDS011;41759;53.330;6.002;2024-02-23T13:22:58;2.38;;;0.63;;
55829;SDS011;41759;53.330;6.002;2024-02-23T13:25:24;5.55;;;0.85;;
55829;SDS011;41759;53.330;6.002;2024-02-23T13:27:50;4.75;;;1.27;;
55829;SDS011;41759;53.330;6.002;2024-02-23T13:30:15;5.57;;;0.80;;
55829;SDS011;41759;53.330;6.002;2024-02-23T13:32:42;6.20;;;1.05;;
55829;SDS011;41759;53.330;6.002;2024-02-23T13:35:08;4.53;;;1.25;;
55829;SDS011;41759;53.330;6.002;2024-02-23T13:37:34;1.77;;;0.90;;
55829;SDS011;41759;53.330;6.002;2024-02-23T13:40:00;9.02;;;1.33;;
55829;SDS011;41759;53.330;6.002;2024-02-23T13:42:26;3.72;;;1.10;;
55829;SDS011;41759;53.330;6.002;2024-02-23T13:44:51;7.82;;;1.10;;
55829;SDS011;41759;53.330;6.002;2024-02-23T13:47:17;3.42;;;0.70;;
55829;SDS011;41759;53.330;6.002;2024-02-23T13:49:43;4.40;;;1.15;;
55829;SDS011;41759;53.330;6.002;2024-02-23T13:52:08;6.10;;;0.88;;
55829;SDS011;41759;53.330;6.002;2024-02-23T13:54:34;1.75;;;0.50;;
55829;SDS011;41759;53.330;6.002;2024-02-23T13:57:00;2.90;;;1.05;;
55829;SDS011;41759;53.330;6.002;2024-02-23T13:59:26;4.68;;;1.35;;
55829;SDS011;41759;53.330;6.002;2024-02-23T14:01:51;4.45;;;1.10;;
55829;SDS011;41759;53.330;6.002;2024-02-23T14:04:18;3.97;;;0.90;;
55829;SDS011;41759;53.330;6.002;2024-02-23T14:06:43;4.40;;;1.02;;
55829;SDS011;41759;53.330;6.002;2024-02-23T14:09:09;6.38;;;1.48;;
55829;SDS011;41759;53.330;6.002;2024-02-23T14:11:35;3.90;;;0.60;;
55829;SDS011;41759;53.330;6.002;2024-02-23T14:14:01;4.05;;;0.85;;
55829;SDS011;41759;53.330;6.002;2024-02-23T14:16:28;3.65;;;1.05;;
55829;SDS011;41759;53.330;6.002;2024-02-23T14:18:54;6.60;;;0.70;;
55829;SDS011;41759;53.330;6.002;2024-02-23T14:21:20;7.13;;;1.38;;
55829;SDS011;41759;53.330;6.002;2024-02-23T14:23:47;5.18;;;0.63;;
55829;SDS011;41759;53.330;6.002;2024-02-23T14:26:13;2.67;;;0.68;;
55829;SDS011;41759;53.330;6.002;2024-02-23T14:28:39;4.85;;;0.80;;
55829;SDS011;41759;53.330;6.002;2024-02-23T14:31:04;2.92;;;0.70;;
55829;SDS011;41759;53.330;6.002;2024-02-23T14:33:31;4.85;;;0.70;;
55829;SDS011;41759;53.330;6.002;2024-02-23T14:35:57;4.95;;;0.98;;
55829;SDS011;41759;53.330;6.002;2024-02-23T14:38:22;2.95;;;0.60;;
55829;SDS011;41759;53.330;6.002;2024-02-23T14:40:48;3.35;;;1.38;;
55829;SDS011;41759;53.330;6.002;2024-02-23T14:43:14;1.92;;;0.73;;
55829;SDS011;41759;53.330;6.002;2024-02-23T14:45:40;7.68;;;1.23;;
55829;SDS011;41759;53.330;6.002;2024-02-23T14:48:06;3.28;;;0.73;;
55829;SDS011;41759;53.330;6.002;2024-02-23T14:50:32;3.35;;;0.80;;